Time;durP1;ratioP1;P1;durP2;ratioP2;P2;SDS_P1;SDS_P2;PMS_P1;PMS_P2;Temp;Humidity;BMP_temperature;BMP_pressure;BME280_temperature;BME280_humidity;BME280_pressure;Samples;Min_cycle;Max_cycle;Signal;HPM_P1;HPM_P2
2024/02/10 00:02:10;;;;;;;9.25;4.00;;;7.90;99.90;;;-144.05;88.66;57029.38;5011323;28;20588;-79
2024/02/10 00:04:38;;;;;;;9.50;4.10;;;;;;;-144.05;88.48;56991.13;5008479;28;20034;-76
2024/02/10 00:07:06;;;;;;;7.00;3.58;;;;;;;-144.05;89.23;56995.38;5012118;28;20376;-77
2024/02/10 00:09:35;;;;;;;8.52;3.92;;;7.70;99.90;;;-144.05;88.90;56991.13;5010846;28;20046;-77
2024/02/10 00:12:01;;;;;;;5.93;3.78;;;8.60;99.90;;;-144.05;89.49;57001.75;5011463;28;20072;-79
2024/02/10 00:14:27;;;;;;;11.35;4.10;;;7.60;99.90;;;-144.05;89.07;57020.88;5011723;28;20030;-80
2024/02/10 00:16:53;;;;;;;10.55;4.40;;;7.50;99.90;;;-144.05;89.31;56976.28;5010366;28;20544;-78
2024/02/10 00:19:21;;;;;;;17.08;4.32;;;14.30;99.90;;;-144.05;89.70;57001.75;5011941;28;20030;-79
2024/02/10 00:21:47;;;;;;;6.45;3.40;;;;;;;-144.05;89.46;56986.91;5011181;28;20053;-78
2024/02/10 00:24:17;;;;;;;11.65;5.00;;;;;;;-144.05;89.66;57010.25;5014896;28;20108;-79
2024/02/10 00:26:45;;;;;;;8.90;4.10;;;7.20;99.90;;;-144.05;89.63;57006.00;5012107;28;20026;-80
2024/02/10 00:29:12;;;;;;;6.63;3.83;;;7.60;99.90;;;-144.05;89.66;56997.50;5013596;28;20438;-78
2024/02/10 00:31:42;;;;;;;6.82;3.90;;;14.40;99.90;;;-144.05;89.85;57006.00;5014054;28;20080;-78
2024/02/10 00:34:08;;;;;;;11.02;4.30;;;;;;;-144.05;89.93;57003.88;5012318;28;20022;-78
2024/02/10 00:36:34;;;;;;;12.13;6.65;;;9.20;99.90;;;-144.05;90.51;57025.13;5009225;28;20080;-79
2024/02/10 00:38:59;;;;;;;51.55;36.00;;;14.40;99.90;;;-144.05;91.45;56997.50;5010794;28;20030;-78
2024/02/10 00:41:25;;;;;;;42.22;29.45;;;14.50;99.90;;;-144.05;90.70;56995.38;5010533;28;20372;-77
2024/02/10 00:43:51;;;;;;;12.10;5.80;;;;;;;-144.05;90.77;57052.75;5011585;28;20065;-83
2024/02/10 00:46:19;;;;;;;9.95;4.30;;;;;;;-144.05;90.64;56991.13;5011053;28;20030;-79
2024/02/10 00:48:47;;;;;;;7.80;4.25;;;14.30;99.90;;;-144.05;90.42;57040.00;5010757;28;20355;-80
2024/02/10 00:51:14;;;;;;;7.43;4.32;;;;;;;-144.05;90.84;57001.75;5009652;28;20462;-77
2024/02/10 00:53:40;;;;;;;8.60;4.50;;;14.20;99.90;;;-144.05;91.40;56993.25;5010630;28;20121;-78
2024/02/10 00:56:12;;;;;;;6.82;4.32;;;8.50;99.90;;;-144.05;91.61;57003.88;5010470;28;20053;-78
2024/02/10 00:58:44;;;;;;;6.97;4.13;;;7.90;99.90;;;-144.05;91.72;57040.00;5007967;28;20033;-79
2024/02/10 01:01:20;;;;;;;6.97;4.30;;;10.40;99.90;;;-144.05;91.33;57008.13;5009865;28;20025;-79
2024/02/10 01:03:48;;;;;;;7.15;4.25;;;7.80;99.90;;;-144.05;91.86;57014.50;5011759;28;20080;-77
2024/02/10 01:06:21;;;;;;;9.20;4.20;;;10.40;99.90;;;-144.05;92.02;56991.13;5009443;28;20069;-78
2024/02/10 01:08:50;;;;;;;7.63;4.20;;;7.70;99.90;;;-144.05;91.83;57008.13;5011441;28;20060;-77
2024/02/10 01:11:22;;;;;;;7.05;4.20;;;14.10;99.90;;;-144.05;92.39;57012.38;5014335;28;20022;-77
2024/02/10 01:13:49;;;;;;;5.75;4.00;;;7.50;99.90;;;-144.05;92.46;57006.00;5015377;28;20171;-78
2024/02/10 01:16:17;;;;;;;8.52;4.30;;;7.70;99.90;;;-144.05;92.52;57010.25;5014327;28;20116;-76
2024/02/10 01:18:46;;;;;;;7.68;4.50;;;14.40;99.90;;;-144.05;93.10;57023.00;5014649;28;20026;-79
2024/02/10 01:21:12;;;;;;;7.68;4.35;;;7.80;99.90;;;-144.05;93.04;57008.13;5014446;28;20026;-79
2024/02/10 01:23:39;;;;;;;9.18;4.82;;;7.40;99.90;;;-144.05;92.75;56995.38;5014627;28;20026;-79
2024/02/10 01:26:09;;;;;;;7.28;4.70;;;7.80;99.90;;;-144.05;93.12;57018.75;5016807;28;20026;-78
2024/02/10 01:28:36;;;;;;;7.30;4.10;;;;;;;-144.05;93.45;57025.13;5009250;28;20045;-78
2024/02/10 01:31:08;;;;;;;8.68;4.35;;;8.40;99.90;;;-144.05;93.52;56993.25;5013987;28;20033;-79
2024/02/10 01:33:35;;;;;;;6.28;4.07;;;;;;;-144.05;93.33;56995.38;5012697;28;20033;-79
2024/02/10 01:36:09;;;;;;;4.85;3.40;;;14.10;99.90;;;-144.05;92.94;56989.00;5028748;28;20376;-79
2024/02/10 01:38:47;;;;;;;5.35;3.60;;;8.60;99.90;;;-144.05;92.67;57018.75;5013982;28;20168;-78
2024/02/10 01:41:15;;;;;;;5.20;3.03;;;10.30;99.90;;;-144.05;92.48;57023.00;5029177;28;20025;-78
2024/02/10 01:43:44;;;;;;;6.75;3.17;;;8.10;99.90;;;-144.05;92.54;57003.88;5029210;28;20033;-78
2024/02/10 01:46:21;;;;;;;3.65;2.97;;;10.30;99.90;;;-144.05;92.19;57006.00;5014599;28;20456;-77
2024/02/10 01:48:49;;;;;;;6.32;3.38;;;8.80;99.90;;;-144.05;92.44;57016.63;5026672;28;20105;-78
2024/02/10 01:51:22;;;;;;;7.00;3.22;;;8.90;99.90;;;-144.05;92.79;57046.38;5012560;28;20103;-78
2024/02/10 01:53:52;;;;;;;6.50;3.67;;;7.60;99.90;;;-144.05;92.52;57012.38;5012881;28;20069;-78
2024/02/10 01:56:19;;;;;;;9.18;4.15;;;7.80;99.90;;;-144.05;92.91;56999.63;5012134;28;20022;-80
2024/02/10 01:58:48;;;;;;;10.40;4.78;;;7.80;99.90;;;-144.05;93.09;56997.50;5012625;28;20034;-79
2024/02/10 02:01:15;;;;;;;8.93;4.38;;;8.60;99.90;;;-144.05;93.41;57031.50;5012253;28;20026;-78
2024/02/10 02:03:43;;;;;;;7.82;4.25;;;7.80;99.90;;;-144.05;93.35;57023.00;5029475;28;20111;-78
2024/02/10 02:06:18;;;;;;;8.45;4.80;;;8.60;99.90;;;-144.05;93.38;56993.25;5012130;28;20120;-79
2024/02/10 02:08:49;;;;;;;7.97;3.70;;;;;;;-144.05;93.65;57012.38;5026488;28;20025;-78
2024/02/10 02:11:15;;;;;;;5.82;3.63;;;8.30;99.90;;;-144.05;93.81;57020.88;5013783;28;20029;-77
2024/02/10 02:13:41;;;;;;;4.60;2.92;;;7.80;99.90;;;-144.05;93.69;57018.75;5012739;28;20037;-79
2024/02/10 02:16:11;;;;;;;5.93;2.97;;;8.20;99.90;;;-144.05;93.63;57012.38;5012139;28;20083;-78
2024/02/10 02:18:39;;;;;;;5.38;2.88;;;8.50;99.90;;;-144.05;93.29;57016.63;5011359;28;20537;-78
2024/02/10 02:21:06;;;;;;;6.07;2.60;;;8.20;99.90;;;-144.05;93.05;57003.88;5009955;28;20025;-78
2024/02/10 02:23:35;;;;;;;6.65;3.10;;;10.00;99.90;;;-144.05;92.87;57018.75;5016261;28;20061;-80
2024/02/10 02:26:02;;;;;;;3.92;3.03;;;;;;;-144.05;93.60;57027.25;5020429;28;20029;-78
2024/02/10 02:28:27;;;;;;;6.53;3.15;;;7.80;99.90;;;-144.05;93.37;56976.28;5012665;28;20423;-77
2024/02/10 02:30:53;;;;;;;3.28;2.80;;;14.30;99.90;;;-144.05;93.24;56993.25;5013353;28;20030;-79
2024/02/10 02:33:20;;;;;;;5.00;2.97;;;;;;;-144.05;93.65;56999.63;5012088;28;20088;-79
2024/02/10 02:35:48;;;;;;;4.97;2.97;;;8.20;99.90;;;-144.05;93.75;56997.50;5012278;28;20438;-79
2024/02/10 02:38:14;;;;;;;3.90;2.97;;;;;;;-144.05;93.80;57020.88;5012188;28;20026;-79
2024/02/10 02:40:41;;;;;;;4.47;2.60;;;11.20;99.90;;;-144.05;93.61;57020.88;5028553;28;20449;-77
2024/02/10 02:43:08;;;;;;;5.53;2.50;;;7.70;99.90;;;-144.05;93.73;57023.00;5013267;28;20026;-78
2024/02/10 02:45:35;;;;;;;3.00;2.17;;;13.90;99.90;;;-144.05;93.77;57012.38;5011639;28;20103;-77
2024/02/10 02:48:03;;;;;;;3.95;2.45;;;;;;;-144.05;94.00;57014.50;5012941;28;20080;-78
2024/02/10 02:50:31;;;;;;;3.95;2.05;;;7.80;99.90;;;-144.05;93.94;57006.00;5012980;28;20142;-77
2024/02/10 02:53:02;;;;;;;3.75;2.38;;;7.50;99.90;;;-144.05;94.19;57001.75;5011936;28;20037;-78
2024/02/10 02:55:29;;;;;;;3.83;1.88;;;8.40;99.90;;;-144.05;94.26;57014.50;5012177;28;20498;-78
2024/02/10 02:58:02;;;;;;;5.00;2.60;;;;;;;-144.05;93.86;57010.25;5014290;28;20071;-79
2024/02/10 03:00:29;;;;;;;3.20;2.20;;;;;;;-144.05;94.06;57033.63;5013953;28;20052;-78
2024/02/10 03:02:59;;;;;;;2.60;1.88;;;8.50;99.90;;;-144.05;94.17;56999.63;5012421;28;20195;-79
2024/02/10 03:05:26;;;;;;;6.40;2.42;;;;;;;-144.05;93.94;57003.88;5012490;28;20025;-80
2024/02/10 03:07:51;;;;;;;4.68;2.80;;;7.50;99.90;;;-144.05;94.01;57008.13;5013067;28;20030;-79
2024/02/10 03:10:17;;;;;;;5.30;2.30;;;14.40;99.90;;;-144.05;93.97;57020.88;5013239;28;20487;-77
2024/02/10 03:12:43;;;;;;;2.60;2.00;;;7.70;99.90;;;-144.05;93.88;57008.13;5013514;28;20029;-79
2024/02/10 03:15:14;;;;;;;3.55;2.10;;;8.90;99.90;;;-144.05;93.50;57008.13;5013677;28;20021;-79
2024/02/10 03:17:40;;;;;;;5.03;1.92;;;7.60;99.90;;;-144.05;94.13;56995.38;5011711;28;20021;-78
2024/02/10 03:20:09;;;;;;;3.65;2.35;;;11.30;99.90;;;-144.05;94.09;57008.13;5015437;28;20394;-79
2024/02/10 03:22:36;;;;;;;2.30;1.70;;;14.60;99.90;;;-144.05;93.78;56993.25;5014718;28;20065;-80
2024/02/10 03:25:03;;;;;;;2.88;2.28;;;7.50;99.90;;;-144.05;93.80;57001.75;5018294;28;20085;-80
2024/02/10 03:27:28;;;;;;;3.03;2.00;;;8.10;99.90;;;-144.05;93.61;57014.50;5014718;28;20044;-79
2024/02/10 03:29:55;;;;;;;2.72;1.63;;;;;;;-144.05;93.73;57006.00;5015323;28;20507;-78
2024/02/10 03:32:20;;;;;;;3.78;1.85;;;8.00;99.90;;;-144.05;93.80;56995.38;5014441;28;20125;-79
2024/02/10 03:34:46;;;;;;;4.07;1.90;;;11.10;99.90;;;-144.05;93.55;56997.50;5014215;28;20113;-79
2024/02/10 03:37:12;;;;;;;2.10;1.77;;;8.00;99.90;;;-144.05;93.10;57003.88;5014364;28;20017;-78
2024/02/10 03:39:39;;;;;;;2.78;1.92;;;7.40;99.90;;;-144.05;92.85;57016.63;5029591;28;20022;-77
2024/02/10 03:42:06;;;;;;;5.85;1.90;;;7.70;99.90;;;-144.05;92.94;57001.75;5013909;28;20395;-79
2024/02/10 03:44:32;;;;;;;3.05;1.80;;;7.70;99.90;;;-144.05;92.75;56997.50;5014453;28;20676;-79
2024/02/10 03:47:01;;;;;;;4.38;2.33;;;8.20;99.90;;;-144.05;92.62;56999.63;5029058;28;20044;-77
2024/02/10 03:49:30;;;;;;;2.17;1.70;;;10.00;99.90;;;-144.05;93.05;57018.75;5012893;28;20510;-78
2024/02/10 03:51:56;;;;;;;2.97;1.90;;;10.00;99.90;;;-144.05;93.55;57031.50;5013637;28;20560;-79
2024/02/10 03:54:22;;;;;;;4.03;2.08;;;;;;;-144.05;93.12;57029.38;5015043;28;20045;-80
2024/02/10 03:56:49;;;;;;;4.00;2.17;;;14.30;99.90;;;-144.05;93.27;57006.00;5013894;28;20061;-81
2024/02/10 03:59:16;;;;;;;3.42;2.08;;;7.50;99.90;;;-144.05;93.50;57008.13;5014191;28;20022;-78
2024/02/10 04:01:46;;;;;;;2.92;1.80;;;8.80;99.90;;;-144.05;93.39;57020.88;5014253;28;20029;-80
2024/02/10 04:04:13;;;;;;;2.30;1.77;;;7.50;99.90;;;-144.05;93.15;57006.00;5015014;28;20030;-79
2024/02/10 04:06:40;;;;;;;3.28;1.77;;;7.70;99.90;;;-144.05;93.27;56993.25;5015413;28;20029;-80
2024/02/10 04:09:09;;;;;;;2.22;1.80;;;7.50;99.90;;;-144.05;93.53;56989.00;5014478;28;20094;-80
2024/02/10 04:11:35;;;;;;;2.05;1.52;;;14.30;99.90;;;-144.05;93.05;57012.38;5015880;28;20529;-80
2024/02/10 04:14:01;;;;;;;1.85;1.35;;;;;;;-144.05;92.64;57020.88;5015077;28;20034;-82
2024/02/10 04:16:28;;;;;;;2.53;1.70;;;7.60;99.90;;;-144.05;92.96;56997.50;5016419;28;20026;-82
2024/02/10 04:18:54;;;;;;;2.85;1.50;;;;;;;-144.05;92.66;57008.13;5015125;28;20116;-80
2024/02/10 04:21:21;;;;;;;2.33;1.25;;;7.00;99.90;;;-144.05;92.38;57023.00;5016071;28;20508;-82
2024/02/10 04:23:47;;;;;;;1.70;1.20;;;;;;;-144.05;92.13;57031.50;5016854;28;20057;-82
2024/02/10 04:26:13;;;;;;;1.92;1.55;;;;;;;-144.05;91.97;57001.75;5019645;28;20537;-79
2024/02/10 04:28:40;;;;;;;4.45;1.40;;;;;;;-144.05;92.05;57010.25;5017188;28;20049;-81
2024/02/10 04:31:05;;;;;;;3.22;1.75;;;7.50;99.90;;;-144.05;92.26;56995.38;5031252;28;20109;-81
2024/02/10 04:33:31;;;;;;;5.95;1.90;;;7.60;99.90;;;-144.05;92.16;56989.00;5013537;28;20401;-80
2024/02/10 04:35:57;;;;;;;1.58;1.42;;;8.00;99.90;;;-144.05;91.91;57027.25;5015481;28;20025;-81
2024/02/10 04:38:23;;;;;;;2.85;1.48;;;;;;;-144.05;92.01;57025.13;5015506;28;20452;-82
2024/02/10 04:40:51;;;;;;;2.70;1.52;;;10.10;99.90;;;-144.05;92.34;57025.13;5014573;28;20091;-78
2024/02/10 04:43:19;;;;;;;2.72;1.70;;;;;;;-144.05;92.01;57012.38;5014727;28;20056;-81
2024/02/10 04:45:48;;;;;;;2.90;1.40;;;7.50;99.90;;;-144.05;92.22;57001.75;5018734;28;20029;-82
2024/02/10 04:48:19;;;;;;;2.70;1.52;;;8.00;99.90;;;-144.05;91.15;57016.63;5020674;28;20022;-80
2024/02/10 04:50:45;;;;;;;2.75;1.20;;;7.20;99.90;;;-144.05;91.83;57006.00;5018619;28;20095;-81
2024/02/10 04:53:15;;;;;;;3.40;1.30;;;7.50;99.90;;;-144.05;91.52;57016.63;5020916;28;20018;-82
2024/02/10 04:55:41;;;;;;;1.90;1.60;;;7.40;99.90;;;-144.05;92.03;57023.00;5019579;28;20029;-81
2024/02/10 04:58:08;;;;;;;1.98;1.40;;;7.60;99.90;;;-144.05;92.14;57001.75;5021449;28;20418;-81
2024/02/10 05:00:33;;;;;;;3.78;1.50;;;7.20;99.90;;;-144.05;91.53;56995.38;5024435;28;20065;-82
2024/02/10 05:03:02;;;;;;;2.75;1.17;;;14.40;99.90;;;-144.05;91.65;57003.88;5023278;28;20037;-81
2024/02/10 05:05:29;;;;;;;2.28;1.30;;;7.50;99.90;;;-144.05;91.98;56993.25;5022986;28;20049;-78
2024/02/10 05:07:58;;;;;;;1.80;1.30;;;8.70;99.90;;;-144.05;91.81;56997.50;5023082;28;20065;-79
2024/02/10 05:10:33;;;;;;;2.90;1.30;;;14.10;99.90;;;-144.05;91.02;57018.75;5026816;28;20022;-78
2024/02/10 05:12:59;;;;;;;2.72;1.38;;;7.00;99.90;;;-144.05;91.27;57040.00;5041718;28;20030;-80
2024/02/10 05:15:26;;;;;;;2.95;1.60;;;9.50;99.90;;;-144.05;91.64;57010.25;5019238;28;20041;-78
2024/02/10 05:17:54;;;;;;;3.60;1.48;;;11.40;99.90;;;-144.05;91.51;57020.88;5017172;28;20032;-78
2024/02/10 05:20:23;;;;;;;3.45;1.60;;;11.30;99.90;;;-144.05;92.31;57016.63;5015336;28;20084;-79
2024/02/10 05:22:59;;;;;;;2.05;1.60;;;7.90;99.90;;;-144.05;92.99;57001.75;5017103;28;20550;-79
2024/02/10 05:25:34;;;;;;;2.55;1.63;;;9.40;99.90;;;-144.05;92.91;56997.50;5014497;28;20030;-79
2024/02/10 05:28:01;;;;;;;2.13;1.73;;;14.10;99.90;;;-144.05;93.01;56989.00;5015816;28;20143;-78
2024/02/10 05:30:28;;;;;;;2.40;1.60;;;7.50;99.90;;;-144.05;93.60;57031.50;5016018;28;20113;-78
2024/02/10 05:32:59;;;;;;;2.17;1.60;;;7.20;99.90;;;-144.05;93.31;56995.38;5015843;28;20435;-79
2024/02/10 05:35:26;;;;;;;3.28;2.13;;;7.20;99.90;;;-144.05;92.99;57023.00;5016406;28;20021;-76
2024/02/10 05:37:59;;;;;;;2.47;1.60;;;14.20;99.90;;;-144.05;93.26;57027.25;5015035;28;20038;-76
2024/02/10 05:40:30;;;;;;;2.08;1.60;;;7.70;99.90;;;-144.05;93.30;57031.50;5016966;28;20044;-78
2024/02/10 05:43:04;;;;;;;2.20;1.65;;;8.80;99.90;;;-144.05;93.25;57010.25;5015294;28;20048;-78
2024/02/10 05:45:33;;;;;;;2.42;2.13;;;7.90;99.90;;;-144.05;93.04;57010.25;5015169;28;20040;-79
2024/02/10 05:47:59;;;;;;;3.78;1.95;;;7.90;99.90;;;-144.05;93.37;57018.75;5015168;28;20030;-78
2024/02/10 05:50:25;;;;;;;2.92;1.90;;;7.00;99.90;;;-144.05;92.96;57027.25;5015038;28;20057;-79
2024/02/10 05:52:57;;;;;;;2.78;1.75;;;13.90;99.90;;;-144.05;92.71;57025.13;5015648;28;20036;-79
2024/02/10 05:55:26;;;;;;;3.85;2.17;;;;;;;-144.05;93.24;57029.38;5014472;28;20481;-79
2024/02/10 05:57:56;;;;;;;2.42;1.85;;;11.10;99.90;;;-144.05;92.97;57001.75;5013725;28;20117;-79
2024/02/10 06:00:25;;;;;;;4.72;1.90;;;7.30;99.90;;;-144.05;92.61;57023.00;5015132;28;20018;-79
2024/02/10 06:02:53;;;;;;;3.10;2.05;;;9.00;99.90;;;-144.05;92.61;57031.50;5014955;28;20447;-79
2024/02/10 06:05:19;;;;;;;3.13;2.30;;;14.30;99.90;;;-144.05;93.27;57001.75;5014668;28;20022;-77
2024/02/10 06:07:48;;;;;;;4.00;2.40;;;7.60;99.90;;;-144.05;93.24;56986.91;5014991;28;20045;-77
2024/02/10 06:10:15;;;;;;;3.13;2.22;;;8.90;99.90;;;-144.05;92.64;57042.13;5020810;28;20022;-79
2024/02/10 06:12:46;;;;;;;2.63;2.35;;;8.10;99.90;;;-144.05;93.24;57033.63;5044653;28;20026;-78
2024/02/10 06:15:13;;;;;;;3.85;2.50;;;8.10;99.90;;;-144.05;93.23;57059.09;5014120;28;20025;-79
2024/02/10 06:17:45;;;;;;;5.80;2.13;;;8.90;99.90;;;-144.05;93.48;57018.75;5014564;28;20026;-78
2024/02/10 06:20:14;;;;;;;4.07;2.20;;;7.20;99.90;;;-144.05;93.78;57027.25;5015082;28;20058;-77
2024/02/10 06:23:01;;;;;;;2.65;2.45;;;10.70;99.90;;;-144.05;93.15;57033.63;5013697;28;20034;-79
2024/02/10 06:25:27;;;;;;;3.60;2.63;;;7.60;99.90;;;-144.05;93.28;57012.38;5013278;28;20399;-79
2024/02/10 06:27:56;;;;;;;4.32;2.50;;;8.30;99.90;;;-144.05;92.95;57044.25;5013021;28;20355;-78
2024/02/10 06:30:30;;;;;;;3.50;2.60;;;7.30;99.90;;;-144.05;93.28;57023.00;5013447;28;20067;-77
2024/02/10 06:32:57;;;;;;;5.30;2.85;;;7.40;99.90;;;-144.05;93.31;57006.00;5013870;28;20030;-77
2024/02/10 06:35:23;;;;;;;6.60;2.47;;;7.30;99.90;;;-144.05;93.38;57048.50;5019953;28;20032;-79
2024/02/10 06:37:50;;;;;;;5.10;2.75;;;;;;;-144.05;93.43;57023.00;5018564;28;20032;-81
2024/02/10 06:40:18;;;;;;;5.35;2.88;;;7.40;99.90;;;-144.05;93.20;57044.25;5017496;28;20145;-79
2024/02/10 06:42:52;;;;;;;3.65;2.13;;;8.00;99.90;;;-144.05;93.80;57016.63;5017149;28;20527;-79
2024/02/10 06:45:24;;;;;;;3.88;2.53;;;7.30;99.90;;;-144.05;93.42;57023.00;5016561;28;20084;-77
2024/02/10 06:47:50;;;;;;;2.70;2.30;;;;;;;-144.05;93.27;57035.75;5017018;28;20076;-79
2024/02/10 06:50:24;;;;;;;5.00;2.70;;;;;;;-144.05;93.58;57031.50;5016024;28;20022;-79
2024/02/10 06:52:51;;;;;;;3.95;2.85;;;10.90;99.90;;;-144.05;93.85;57023.00;5016172;28;20459;-79
2024/02/10 06:55:19;;;;;;;4.28;2.75;;;7.30;99.90;;;-144.05;93.78;57025.13;5014800;28;20030;-79
2024/02/10 06:57:47;;;;;;;4.00;2.88;;;7.30;99.90;;;-144.05;93.38;56991.13;5015638;28;20029;-78
2024/02/10 07:00:15;;;;;;;3.95;2.67;;;7.90;99.90;;;-144.05;93.78;57025.13;5014312;28;20022;-78
2024/02/10 07:02:45;;;;;;;3.55;2.80;;;7.30;99.90;;;-144.05;93.05;56989.00;5015871;28;20029;-80
2024/02/10 07:05:15;;;;;;;3.90;2.92;;;10.90;99.90;;;-144.05;93.49;57025.13;5030179;28;20030;-78
2024/02/10 07:07:48;;;;;;;5.13;3.08;;;7.30;99.90;;;-144.05;93.00;57018.75;5013949;28;20129;-76
2024/02/10 07:10:23;;;;;;;3.72;2.50;;;7.00;99.90;;;-144.05;93.85;57008.13;5016084;28;20021;-80
2024/02/10 07:12:54;;;;;;;3.83;3.30;;;10.90;99.90;;;-144.05;93.01;56993.25;5019047;28;20036;-81
2024/02/10 07:15:24;;;;;;;3.95;2.78;;;7.00;99.90;;;-144.05;93.41;57018.75;5016472;28;20029;-80
2024/02/10 07:17:53;;;;;;;3.38;2.58;;;8.30;99.90;;;-144.05;92.99;57027.25;5015763;28;20033;-81
2024/02/10 07:20:25;;;;;;;5.07;2.58;;;8.40;99.90;;;-144.05;93.26;57023.00;5017707;28;20136;-79
2024/02/10 07:22:58;;;;;;;4.13;2.65;;;10.90;99.90;;;-144.05;92.82;57020.88;5018109;28;20053;-76
2024/02/10 07:25:32;;;;;;;5.03;2.90;;;7.80;99.90;;;-144.05;92.32;57046.38;5016778;28;20026;-78
2024/02/10 07:28:01;;;;;;;5.25;3.08;;;8.30;99.90;;;-144.05;92.38;57040.00;5016011;28;20030;-79
2024/02/10 07:30:29;;;;;;;4.70;2.78;;;9.20;99.90;;;-144.05;91.55;57033.63;5015227;28;20030;-78
2024/02/10 07:33:08;;;;;;;3.70;2.45;;;7.70;99.90;;;-144.05;91.71;57008.13;5016445;28;20049;-79
2024/02/10 07:35:36;;;;;;;3.25;2.75;;;14.30;99.90;;;-144.05;90.47;57029.38;5016849;28;20026;-78
2024/02/10 07:38:02;;;;;;;3.97;2.53;;;7.70;99.90;;;-144.05;89.73;57010.25;5032993;28;20057;-78
2024/02/10 07:40:28;;;;;;;2.95;2.40;;;6.60;99.90;;;-144.05;89.94;56993.25;5014896;28;20088;-79
2024/02/10 07:42:55;;;;;;;3.63;2.17;;;;;;;-144.05;89.76;57018.75;5014445;28;20040;-78
2024/02/10 07:45:23;;;;;;;4.80;2.45;;;7.80;99.90;;;-144.05;90.05;57012.38;5013040;28;20049;-79
2024/02/10 07:47:53;;;;;;;4.72;2.17;;;7.70;99.90;;;-144.05;89.87;56995.38;5029208;28;20073;-79
2024/02/10 07:50:20;;;;;;;3.05;2.25;;;7.60;99.90;;;-144.05;89.63;56995.38;5029317;28;20022;-77
2024/02/10 07:52:48;;;;;;;2.92;2.40;;;7.50;99.90;;;-144.05;89.11;57003.88;5014733;28;20081;-77
2024/02/10 07:55:16;;;;;;;5.03;2.63;;;;;;;-144.05;88.21;57027.25;5014698;28;20024;-78
2024/02/10 07:57:42;;;;;;;3.58;2.13;;;8.60;99.90;;;-144.05;88.23;57014.50;5018726;28;20022;-78
2024/02/10 08:00:16;;;;;;;4.43;2.30;;;7.80;99.90;;;-144.05;86.76;56991.13;5016229;28;20030;-77
2024/02/10 08:02:43;;;;;;;2.83;2.30;;;7.90;99.90;;;-144.05;86.50;57016.63;5009181;28;20037;-78
2024/02/10 08:05:10;;;;;;;3.38;2.33;;;14.20;99.90;;;-144.05;85.54;56997.50;5014911;28;20479;-78
2024/02/10 08:07:38;;;;;;;3.22;2.20;;;7.40;99.90;;;-144.05;85.29;57012.38;5009070;28;20107;-78
2024/02/10 08:10:08;;;;;;;3.08;2.30;;;14.30;99.90;;;-144.05;85.26;57018.75;5015119;28;20588;-78
2024/02/10 08:12:35;;;;;;;2.08;1.88;;;7.40;99.90;;;-144.05;84.46;56967.78;5014579;28;20095;-79
2024/02/10 08:15:01;;;;;;;2.53;1.85;;;14.10;99.90;;;-144.05;84.21;57014.50;5015411;28;20037;-78
2024/02/10 08:17:30;;;;;;;3.92;2.00;;;8.30;99.90;;;-144.05;83.61;56991.13;5016402;28;20394;-78
2024/02/10 08:19:58;;;;;;;2.33;1.70;;;7.90;99.90;;;-144.05;83.71;56980.53;5015693;28;20104;-80
2024/02/10 08:22:34;;;;;;;2.70;1.80;;;10.80;99.90;;;-144.05;83.57;57001.75;5014158;28;20040;-78
2024/02/10 08:25:02;;;;;;;3.33;2.10;;;;;;;-144.05;82.96;56976.28;5016095;28;20048;-79
2024/02/10 08:27:29;;;;;;;3.47;1.75;;;14.20;99.90;;;-144.05;82.05;56976.28;5015221;28;20048;-78
2024/02/10 08:30:04;;;;;;;3.30;2.30;;;8.90;99.90;;;-144.05;81.69;56974.16;5016414;28;20029;-77
2024/02/10 08:32:31;;;;;;;2.83;1.73;;;8.40;99.90;;;-144.05;81.32;56976.28;5016166;28;20021;-80
2024/02/10 08:35:00;;;;;;;2.95;1.95;;;8.30;99.90;;;-144.05;80.96;57018.75;5016737;28;20064;-80
2024/02/10 08:37:29;;;;;;;2.78;1.77;;;8.90;99.90;;;-144.05;80.02;57003.88;5014704;28;20029;-80
2024/02/10 08:39:57;;;;;;;2.78;1.63;;;8.80;99.90;;;-144.05;78.43;56997.50;5016916;28;20034;-76
2024/02/10 08:42:24;;;;;;;4.32;1.80;;;8.60;99.90;;;-144.05;78.03;57012.38;5014801;28;20022;-81
2024/02/10 08:44:50;;;;;;;1.92;1.73;;;14.80;99.90;;;-144.05;78.35;56999.63;5031256;28;20037;-79
2024/02/10 08:47:16;;;;;;;3.05;1.80;;;9.20;99.90;;;-144.05;78.13;56984.78;5029480;28;20160;-80
2024/02/10 08:49:42;;;;;;;3.33;1.30;;;;;;;-144.05;78.59;57006.00;5014724;28;20545;-81
2024/02/10 08:52:19;;;;;;;1.98;1.50;;;11.80;99.90;;;-144.05;79.07;56989.00;5027588;28;20037;-83
2024/02/10 08:54:46;;;;;;;2.08;1.40;;;;;;;-144.05;77.41;56989.00;5016095;28;20415;-78
2024/02/10 08:57:15;;;;;;;1.60;1.00;;;8.90;99.90;;;-144.05;76.73;56980.53;5012149;28;20046;-78
2024/02/10 08:59:45;;;;;;;1.60;1.40;;;9.40;99.90;;;-144.05;76.17;57001.75;5013493;28;20028;-80
2024/02/10 09:02:12;;;;;;;1.85;1.50;;;9.90;99.90;;;-144.05;75.48;56984.78;5013584;28;20022;-80
2024/02/10 09:04:38;;;;;;;1.65;1.20;;;10.20;99.90;;;-144.05;74.76;56993.25;5013181;28;20022;-81
2024/02/10 09:07:06;;;;;;;2.97;1.30;;;10.30;99.90;;;-144.05;74.33;56999.63;5013670;28;20088;-77
2024/02/10 09:09:33;;;;;;;1.45;1.30;;;9.60;99.90;;;-144.05;74.24;56976.28;5014499;28;20018;-78
2024/02/10 09:11:59;;;;;;;2.67;1.20;;;10.10;99.90;;;-144.05;74.46;56978.41;5013780;28;20071;-80
2024/02/10 09:14:26;;;;;;;1.55;1.20;;;;;;;-144.05;74.52;56989.00;5011929;28;20089;-80
2024/02/10 09:16:51;;;;;;;2.65;1.20;;;9.80;99.90;;;-144.05;73.91;57016.63;5013436;28;20026;-78
2024/02/10 09:19:19;;;;;;;1.35;1.08;;;15.10;99.90;;;-144.05;73.89;56978.41;5027341;28;20045;-79
2024/02/10 09:21:55;;;;;;;1.58;1.23;;;14.90;99.90;;;-144.05;73.13;56984.78;5012755;28;20057;-80
2024/02/10 09:24:26;;;;;;;1.58;0.95;;;10.40;99.90;;;-144.05;72.12;56982.66;5014673;28;20360;-81
2024/02/10 09:26:53;;;;;;;1.83;1.08;;;;;;;-144.05;70.46;56974.16;5014129;28;20041;-78
2024/02/10 09:29:19;;;;;;;1.48;1.08;;;14.80;99.90;;;-144.05;70.66;57010.25;5013022;28;20109;-79
2024/02/10 09:31:48;;;;;;;1.75;1.13;;;13.20;99.90;;;-144.05;70.40;56995.38;5032275;28;20107;-79
2024/02/10 09:34:15;;;;;;;2.25;0.98;;;;;;;-144.05;69.28;56989.00;5017859;28;20030;-79
2024/02/10 09:36:45;;;;;;;0.88;0.70;;;15.30;99.90;;;-144.05;68.77;56993.25;5019946;28;20053;-79
2024/02/10 09:39:18;;;;;;;3.05;1.02;;;13.30;99.90;;;-144.05;68.40;56997.50;5019498;28;20042;-78
2024/02/10 09:41:44;;;;;;;2.38;1.40;;;15.10;99.90;;;-144.05;69.87;57014.50;5035244;28;20056;-77
2024/02/10 09:44:11;;;;;;;2.22;1.02;;;14.80;99.90;;;-144.05;69.40;57001.75;5035957;28;20030;-78
2024/02/10 09:46:38;;;;;;;2.00;0.93;;;10.80;99.90;;;-144.05;68.70;56993.25;5028381;28;20045;-81
2024/02/10 09:49:13;;;;;;;3.38;1.40;;;11.20;99.90;;;-144.05;69.46;56984.78;5018071;28;20060;-80
2024/02/10 09:51:43;;;;;;;5.13;1.20;;;;;;;-144.05;69.18;56995.38;5018021;28;20026;-79
2024/02/10 09:54:13;;;;;;;1.60;1.30;;;14.80;99.90;;;-144.05;68.92;57001.75;5017855;28;20036;-81
2024/02/10 09:56:41;;;;;;;2.78;1.10;;;15.10;99.90;;;-144.05;67.61;57008.13;5012105;28;20112;-79
2024/02/10 09:59:24;;;;;;;1.60;1.02;;;13.60;99.90;;;-144.05;68.75;56965.66;5019108;28;20025;-79
2024/02/10 10:01:51;;;;;;;2.25;0.90;;;;;;;-144.05;68.24;56995.38;5029323;28;20466;-78
2024/02/10 10:04:21;;;;;;;1.27;0.93;;;;;;;-144.05;68.45;57001.75;5033715;28;20029;-80
2024/02/10 10:06:48;;;;;;;1.52;0.95;;;11.10;99.90;;;-144.05;67.53;56984.78;5017739;28;20098;-79
2024/02/10 10:09:20;;;;;;;1.00;0.90;;;10.80;99.90;;;-144.05;67.28;57025.13;5018228;28;20026;-79
2024/02/10 10:11:49;;;;;;;1.13;0.88;;;15.30;99.90;;;-144.05;66.83;56995.38;5018926;28;20034;-77
2024/02/10 10:14:19;;;;;;;1.50;0.90;;;15.30;99.90;;;-144.05;66.90;56993.25;5018447;28;20026;-79
2024/02/10 10:16:56;;;;;;;1.58;0.85;;;15.10;99.90;;;-144.05;66.82;56991.13;5017035;28;20545;-78
2024/02/10 10:19:26;;;;;;;3.42;0.98;;;15.00;99.90;;;-144.05;67.44;56982.66;5016979;28;20033;-80
2024/02/10 10:21:55;;;;;;;2.08;1.02;;;11.10;99.90;;;-144.05;67.90;57006.00;5016693;28;20025;-81
2024/02/10 10:24:22;;;;;;;1.42;0.90;;;15.30;99.90;;;-144.05;66.94;57001.75;5019779;28;20025;-79
2024/02/10 10:26:59;;;;;;;1.88;1.00;;;15.10;99.90;;;-144.05;67.78;56980.53;5016300;28;20534;-78